Portada
METAR-TAF:

METAR-TAF

Aeroports :

Llemotges, França

latitud: 45-52N, longitud: 001-11E, altitud: 396 m

Observació

L'informe es va fer fa 44 minuts, a les 13:30 UTC
Vent 9 kt del Nord-Oest, variant entre Oest/Sud-Oest i Nord
Temperatura 19°C
Humitat 56%
Pressió 1023 hPa
Visibilitat 10 km o més
sense núvols per sota de 1500 mi sense presència de cumulonimbus.

METAR: LFBL 031330Z AUTO 31009KT 250V350 CAVOK 19/10 Q1023 NOSIG

Hora: 16:14 (14:14 UTC)

Pronòstic

L'informe es va fer fa 3 hores i 14 minuts, a les 11:00 UTC
Pronòstic vàlid del 03 a les 12 UTC al 04 a les 12 UTC
Vent 8 kt del Nord-Oest
Visibilitat 10 km o més
Núvols disperses a una alçada de 4500 ft
Evolucionant progressivament
l' 03 a les 12 UTC al 03 a les 14 UTC
Visibilitat 10 km o més
sense núvols per sota de 1500 mi sense presència de cumulonimbus.

TAF: LFBL 031100Z 0312/0412 31008KT 9999 SCT045 BECMG 0312/0314 CAVOK

Observacions i pronòstics meteorològics de més de 4000 aeroports (METAR i TAF).

Les estacions disponibles són els punts grocs i vermells al mapa.

Posi el ratolí al punt desitjat per veure el nom de l'estació.

Feu clic per veure les observacions i els pronòstics meteorològics.

Per canviar el mapa: feu clic els botons verds amb una creu de color negre per apropar; al botó verd amb un guió per allunyar la imatge; o en les fletxes verdes per a mapes adjacents.


METAR-TAF: